sensor_id;sensor_type;location;lat;lon;timestamp;temperature;humidity
46364;DHT22;32071;49.036;9.344;2023-06-10T00:01:52;18.60;93.80
46364;DHT22;32071;49.036;9.344;2023-06-10T00:04:20;18.60;93.80
46364;DHT22;32071;49.036;9.344;2023-06-10T00:06:46;18.60;93.90
46364;DHT22;32071;49.036;9.344;2023-06-10T00:09:13;18.60;93.70
46364;DHT22;32071;49.036;9.344;2023-06-10T00:11:40;18.60;93.80
46364;DHT22;32071;49.036;9.344;2023-06-10T00:14:05;18.60;93.40
46364;DHT22;32071;49.036;9.344;2023-06-10T00:16:31;18.60;93.70
46364;DHT22;32071;49.036;9.344;2023-06-10T00:18:57;18.60;93.60
46364;DHT22;32071;49.036;9.344;2023-06-10T00:21:30;18.50;93.70
46364;DHT22;32071;49.036;9.344;2023-06-10T00:24:03;18.50;93.60
46364;DHT22;32071;49.036;9.344;2023-06-10T00:26:29;18.50;93.70
46364;DHT22;32071;49.036;9.344;2023-06-10T00:28:55;18.50;93.70
46364;DHT22;32071;49.036;9.344;2023-06-10T00:31:20;18.40;94.00
46364;DHT22;32071;49.036;9.344;2023-06-10T00:33:46;18.40;94.00
46364;DHT22;32071;49.036;9.344;2023-06-10T00:36:11;18.30;94.00
46364;DHT22;32071;49.036;9.344;2023-06-10T00:38:37;18.30;94.40
46364;DHT22;32071;49.036;9.344;2023-06-10T00:41:02;18.20;94.20
46364;DHT22;32071;49.036;9.344;2023-06-10T00:43:28;18.20;94.40
46364;DHT22;32071;49.036;9.344;2023-06-10T00:45:54;18.10;94.70
46364;DHT22;32071;49.036;9.344;2023-06-10T00:48:20;18.00;94.80
46364;DHT22;32071;49.036;9.344;2023-06-10T00:50:46;18.00;94.80
46364;DHT22;32071;49.036;9.344;2023-06-10T00:53:12;17.90;94.90
46364;DHT22;32071;49.036;9.344;2023-06-10T00:55:38;17.90;95.50
46364;DHT22;32071;49.036;9.344;2023-06-10T00:58:05;17.90;95.10
46364;DHT22;32071;49.036;9.344;2023-06-10T01:00:31;17.80;95.30
46364;DHT22;32071;49.036;9.344;2023-06-10T01:02:56;17.70;95.40
46364;DHT22;32071;49.036;9.344;2023-06-10T01:05:23;17.70;96.10
46364;DHT22;32071;49.036;9.344;2023-06-10T01:10:43;17.60;96.40
46364;DHT22;32071;49.036;9.344;2023-06-10T01:13:13;17.50;96.80
46364;DHT22;32071;49.036;9.344;2023-06-10T01:15:39;17.40;97.30
46364;DHT22;32071;49.036;9.344;2023-06-10T01:18:07;17.30;98.00
46364;DHT22;32071;49.036;9.344;2023-06-10T01:20:41;17.20;97.80
46364;DHT22;32071;49.036;9.344;2023-06-10T01:23:09;17.00;98.00
46364;DHT22;32071;49.036;9.344;2023-06-10T01:25:38;17.00;98.40
46364;DHT22;32071;49.036;9.344;2023-06-10T01:33:51;16.60;99.00
46364;DHT22;32071;49.036;9.344;2023-06-10T01:36:18;16.50;99.50
46364;DHT22;32071;49.036;9.344;2023-06-10T01:38:45;16.50;99.60
46364;DHT22;32071;49.036;9.344;2023-06-10T01:41:13;16.40;99.90
46364;DHT22;32071;49.036;9.344;2023-06-10T01:43:39;16.30;99.90
46364;DHT22;32071;49.036;9.344;2023-06-10T01:46:05;16.30;99.90
46364;DHT22;32071;49.036;9.344;2023-06-10T01:48:32;16.20;99.90
46364;DHT22;32071;49.036;9.344;2023-06-10T01:50:58;16.10;99.90
46364;DHT22;32071;49.036;9.344;2023-06-10T01:53:23;16.10;99.90
46364;DHT22;32071;49.036;9.344;2023-06-10T01:55:49;16.00;99.90
46364;DHT22;32071;49.036;9.344;2023-06-10T01:58:15;15.90;99.90
46364;DHT22;32071;49.036;9.344;2023-06-10T02:00:40;15.90;99.90
46364;DHT22;32071;49.036;9.344;2023-06-10T02:03:06;15.80;99.90
46364;DHT22;32071;49.036;9.344;2023-06-10T02:05:31;15.70;99.90
46364;DHT22;32071;49.036;9.344;2023-06-10T02:07:57;15.70;99.90
46364;DHT22;32071;49.036;9.344;2023-06-10T02:10:23;15.60;99.90
46364;DHT22;32071;49.036;9.344;2023-06-10T02:12:49;15.50;99.90
46364;DHT22;32071;49.036;9.344;2023-06-10T02:15:15;15.40;99.90
46364;DHT22;32071;49.036;9.344;2023-06-10T02:17:40;15.40;99.90
46364;DHT22;32071;49.036;9.344;2023-06-10T02:20:06;15.30;99.90
46364;DHT22;32071;49.036;9.344;2023-06-10T02:22:33;15.30;99.90
46364;DHT22;32071;49.036;9.344;2023-06-10T02:24:59;15.20;99.90
46364;DHT22;32071;49.036;9.344;2023-06-10T02:27:24;15.10;99.90
46364;DHT22;32071;49.036;9.344;2023-06-10T02:29:50;15.10;99.90
46364;DHT22;32071;49.036;9.344;2023-06-10T02:32:16;15.00;99.90
46364;DHT22;32071;49.036;9.344;2023-06-10T02:34:42;14.90;99.90
46364;DHT22;32071;49.036;9.344;2023-06-10T02:37:11;14.80;99.90
46364;DHT22;32071;49.036;9.344;2023-06-10T02:39:36;14.80;99.90
46364;DHT22;32071;49.036;9.344;2023-06-10T02:42:02;14.80;99.90
46364;DHT22;32071;49.036;9.344;2023-06-10T02:44:28;14.80;99.90
46364;DHT22;32071;49.036;9.344;2023-06-10T02:46:53;14.70;99.90
46364;DHT22;32071;49.036;9.344;2023-06-10T02:49:19;14.60;99.90
46364;DHT22;32071;49.036;9.344;2023-06-10T02:51:44;14.60;99.90
46364;DHT22;32071;49.036;9.344;2023-06-10T02:54:10;14.60;99.90
46364;DHT22;32071;49.036;9.344;2023-06-10T02:56:35;14.50;99.90
46364;DHT22;32071;49.036;9.344;2023-06-10T02:59:01;14.40;99.90
46364;DHT22;32071;49.036;9.344;2023-06-10T03:01:27;14.40;99.90
46364;DHT22;32071;49.036;9.344;2023-06-10T03:03:53;14.30;99.90
46364;DHT22;32071;49.036;9.344;2023-06-10T03:06:18;14.30;99.90
46364;DHT22;32071;49.036;9.344;2023-06-10T03:08:44;14.30;99.90
46364;DHT22;32071;49.036;9.344;2023-06-10T03:11:11;14.20;99.90
46364;DHT22;32071;49.036;9.344;2023-06-10T03:13:38;14.20;99.90
46364;DHT22;32071;49.036;9.344;2023-06-10T03:16:04;14.20;99.90
46364;DHT22;32071;49.036;9.344;2023-06-10T03:18:30;14.20;99.90
46364;DHT22;32071;49.036;9.344;2023-06-10T03:20:55;14.10;99.90
46364;DHT22;32071;49.036;9.344;2023-06-10T03:23:22;14.10;99.90
46364;DHT22;32071;49.036;9.344;2023-06-10T03:25:48;14.10;99.90
46364;DHT22;32071;49.036;9.344;2023-06-10T03:28:14;14.00;99.90
46364;DHT22;32071;49.036;9.344;2023-06-10T03:30:39;14.00;99.90
46364;DHT22;32071;49.036;9.344;2023-06-10T03:33:05;14.00;99.90
46364;DHT22;32071;49.036;9.344;2023-06-10T03:35:31;14.00;99.90
46364;DHT22;32071;49.036;9.344;2023-06-10T03:37:58;14.00;99.90
46364;DHT22;32071;49.036;9.344;2023-06-10T03:40:23;14.00;99.90
46364;DHT22;32071;49.036;9.344;2023-06-10T03:42:49;13.90;99.90
46364;DHT22;32071;49.036;9.344;2023-06-10T03:45:14;14.00;99.90
46364;DHT22;32071;49.036;9.344;2023-06-10T03:47:40;14.00;99.90
46364;DHT22;32071;49.036;9.344;2023-06-10T03:50:07;14.00;99.90
46364;DHT22;32071;49.036;9.344;2023-06-10T03:52:33;13.90;99.90
46364;DHT22;32071;49.036;9.344;2023-06-10T03:54:59;14.00;99.90
46364;DHT22;32071;49.036;9.344;2023-06-10T03:57:25;13.90;99.90
46364;DHT22;32071;49.036;9.344;2023-06-10T03:59:51;14.00;99.90
46364;DHT22;32071;49.036;9.344;2023-06-10T04:02:16;13.90;99.90
46364;DHT22;32071;49.036;9.344;2023-06-10T04:04:42;13.90;99.90
46364;DHT22;32071;49.036;9.344;2023-06-10T04:07:08;13.90;99.90
46364;DHT22;32071;49.036;9.344;2023-06-10T04:09:34;13.90;99.90
46364;DHT22;32071;49.036;9.344;2023-06-10T04:12:01;14.00;99.90
46364;DHT22;32071;49.036;9.344;2023-06-10T04:14:27;14.00;99.90
46364;DHT22;32071;49.036;9.344;2023-06-10T04:16:53;14.00;99.90
46364;DHT22;32071;49.036;9.344;2023-06-10T04:19:18;14.10;99.90
46364;DHT22;32071;49.036;9.344;2023-06-10T04:21:44;14.20;99.90
46364;DHT22;32071;49.036;9.344;2023-06-10T04:24:09;14.30;99.90
46364;DHT22;32071;49.036;9.344;2023-06-10T04:26:35;14.40;99.90
46364;DHT22;32071;49.036;9.344;2023-06-10T04:29:01;14.50;99.90
46364;DHT22;32071;49.036;9.344;2023-06-10T04:31:27;14.50;99.90
46364;DHT22;32071;49.036;9.344;2023-06-10T04:33:53;14.60;99.90
46364;DHT22;32071;49.036;9.344;2023-06-10T04:36:18;14.70;99.90
46364;DHT22;32071;49.036;9.344;2023-06-10T04:38:44;14.80;99.90
46364;DHT22;32071;49.036;9.344;2023-06-10T04:41:10;14.90;99.90
46364;DHT22;32071;49.036;9.344;2023-06-10T04:43:35;15.00;99.90
46364;DHT22;32071;49.036;9.344;2023-06-10T04:46:01;15.10;99.90
46364;DHT22;32071;49.036;9.344;2023-06-10T04:48:27;15.10;99.90
46364;DHT22;32071;49.036;9.344;2023-06-10T04:50:52;15.20;99.90
46364;DHT22;32071;49.036;9.344;2023-06-10T04:53:18;15.30;99.90
46364;DHT22;32071;49.036;9.344;2023-06-10T04:55:44;15.40;99.90
46364;DHT22;32071;49.036;9.344;2023-06-10T04:58:09;15.50;99.90
46364;DHT22;32071;49.036;9.344;2023-06-10T05:00:35;15.50;99.90
46364;DHT22;32071;49.036;9.344;2023-06-10T05:03:00;15.60;99.90
46364;DHT22;32071;49.036;9.344;2023-06-10T05:05:26;15.70;99.90
46364;DHT22;32071;49.036;9.344;2023-06-10T05:07:51;15.80;99.90
46364;DHT22;32071;49.036;9.344;2023-06-10T05:10:17;15.90;99.90
46364;DHT22;32071;49.036;9.344;2023-06-10T05:12:43;16.00;99.90
46364;DHT22;32071;49.036;9.344;2023-06-10T05:15:09;16.10;99.90
46364;DHT22;32071;49.036;9.344;2023-06-10T05:17:34;16.20;99.90
46364;DHT22;32071;49.036;9.344;2023-06-10T05:20:01;16.30;99.90
46364;DHT22;32071;49.036;9.344;2023-06-10T05:22:27;16.40;99.90
46364;DHT22;32071;49.036;9.344;2023-06-10T05:24:53;16.50;99.90
46364;DHT22;32071;49.036;9.344;2023-06-10T05:27:19;16.60;99.90
46364;DHT22;32071;49.036;9.344;2023-06-10T05:29:44;16.70;99.90
46364;DHT22;32071;49.036;9.344;2023-06-10T05:32:11;16.80;99.90
46364;DHT22;32071;49.036;9.344;2023-06-10T05:34:45;16.90;99.90
46364;DHT22;32071;49.036;9.344;2023-06-10T05:37:10;17.00;99.90
46364;DHT22;32071;49.036;9.344;2023-06-10T05:39:36;17.10;99.90
46364;DHT22;32071;49.036;9.344;2023-06-10T05:42:08;17.30;99.90
46364;DHT22;32071;49.036;9.344;2023-06-10T05:44:34;17.40;99.90
46364;DHT22;32071;49.036;9.344;2023-06-10T05:47:00;17.50;99.90
46364;DHT22;32071;49.036;9.344;2023-06-10T05:49:25;17.70;99.90
46364;DHT22;32071;49.036;9.344;2023-06-10T05:51:51;17.80;99.90
46364;DHT22;32071;49.036;9.344;2023-06-10T05:54:18;17.90;99.90
46364;DHT22;32071;49.036;9.344;2023-06-10T05:56:44;18.00;99.90
46364;DHT22;32071;49.036;9.344;2023-06-10T05:59:09;18.20;99.90
46364;DHT22;32071;49.036;9.344;2023-06-10T06:01:35;18.30;99.90
46364;DHT22;32071;49.036;9.344;2023-06-10T06:04:01;18.40;99.90
46364;DHT22;32071;49.036;9.344;2023-06-10T06:06:26;18.50;99.90
46364;DHT22;32071;49.036;9.344;2023-06-10T06:08:52;18.70;99.90
46364;DHT22;32071;49.036;9.344;2023-06-10T06:11:17;18.80;99.90
46364;DHT22;32071;49.036;9.344;2023-06-10T06:13:43;18.90;99.90
46364;DHT22;32071;49.036;9.344;2023-06-10T06:16:08;19.10;99.90
46364;DHT22;32071;49.036;9.344;2023-06-10T06:18:34;19.20;99.90
46364;DHT22;32071;49.036;9.344;2023-06-10T06:20:59;19.40;99.90
46364;DHT22;32071;49.036;9.344;2023-06-10T06:23:25;19.60;99.90
46364;DHT22;32071;49.036;9.344;2023-06-10T06:25:51;19.70;99.90
46364;DHT22;32071;49.036;9.344;2023-06-10T06:28:17;19.80;99.90
46364;DHT22;32071;49.036;9.344;2023-06-10T06:30:44;19.90;99.90
46364;DHT22;32071;49.036;9.344;2023-06-10T06:33:10;20.10;99.90
46364;DHT22;32071;49.036;9.344;2023-06-10T06:35:35;20.10;99.90
46364;DHT22;32071;49.036;9.344;2023-06-10T06:38:01;20.20;99.90
46364;DHT22;32071;49.036;9.344;2023-06-10T06:40:26;20.30;99.90
46364;DHT22;32071;49.036;9.344;2023-06-10T06:42:52;20.40;99.90
46364;DHT22;32071;49.036;9.344;2023-06-10T06:45:18;20.50;99.90
46364;DHT22;32071;49.036;9.344;2023-06-10T06:47:43;20.60;99.90
46364;DHT22;32071;49.036;9.344;2023-06-10T06:50:09;20.70;99.90
46364;DHT22;32071;49.036;9.344;2023-06-10T06:52:35;20.70;99.90
46364;DHT22;32071;49.036;9.344;2023-06-10T06:55:00;20.90;99.90
46364;DHT22;32071;49.036;9.344;2023-06-10T06:57:26;20.90;99.90
46364;DHT22;32071;49.036;9.344;2023-06-10T06:59:51;21.00;99.90
46364;DHT22;32071;49.036;9.344;2023-06-10T07:02:17;21.10;99.90
46364;DHT22;32071;49.036;9.344;2023-06-10T07:04:44;21.10;99.90
46364;DHT22;32071;49.036;9.344;2023-06-10T07:07:11;21.20;99.90
46364;DHT22;32071;49.036;9.344;2023-06-10T07:09:37;21.30;99.90
46364;DHT22;32071;49.036;9.344;2023-06-10T07:12:03;21.40;99.90
46364;DHT22;32071;49.036;9.344;2023-06-10T07:14:29;21.50;99.90
46364;DHT22;32071;49.036;9.344;2023-06-10T07:16:55;21.60;99.90
46364;DHT22;32071;49.036;9.344;2023-06-10T07:19:20;21.60;99.90
46364;DHT22;32071;49.036;9.344;2023-06-10T07:21:46;21.70;99.90
46364;DHT22;32071;49.036;9.344;2023-06-10T07:24:11;21.80;99.90
46364;DHT22;32071;49.036;9.344;2023-06-10T07:26:37;21.90;99.90
46364;DHT22;32071;49.036;9.344;2023-06-10T07:29:03;22.00;99.90
46364;DHT22;32071;49.036;9.344;2023-06-10T07:31:28;22.00;99.90
46364;DHT22;32071;49.036;9.344;2023-06-10T07:33:54;22.10;99.90
46364;DHT22;32071;49.036;9.344;2023-06-10T07:36:19;22.20;99.90
46364;DHT22;32071;49.036;9.344;2023-06-10T07:38:45;22.20;99.90
46364;DHT22;32071;49.036;9.344;2023-06-10T07:41:10;22.30;99.90
46364;DHT22;32071;49.036;9.344;2023-06-10T07:43:37;22.40;99.90
46364;DHT22;32071;49.036;9.344;2023-06-10T07:46:02;22.50;99.90
46364;DHT22;32071;49.036;9.344;2023-06-10T07:48:28;22.60;99.90
46364;DHT22;32071;49.036;9.344;2023-06-10T07:50:53;22.70;99.90
46364;DHT22;32071;49.036;9.344;2023-06-10T07:53:19;22.80;99.90
46364;DHT22;32071;49.036;9.344;2023-06-10T07:55:45;22.90;99.90
46364;DHT22;32071;49.036;9.344;2023-06-10T07:58:10;23.00;99.90
46364;DHT22;32071;49.036;9.344;2023-06-10T08:00:36;23.00;99.90
46364;DHT22;32071;49.036;9.344;2023-06-10T08:03:02;23.10;99.90
46364;DHT22;32071;49.036;9.344;2023-06-10T08:05:27;23.20;99.90
46364;DHT22;32071;49.036;9.344;2023-06-10T08:07:53;23.30;99.90
46364;DHT22;32071;49.036;9.344;2023-06-10T08:10:19;23.40;99.90
46364;DHT22;32071;49.036;9.344;2023-06-10T08:12:44;23.50;99.90
46364;DHT22;32071;49.036;9.344;2023-06-10T08:15:10;23.50;99.90
46364;DHT22;32071;49.036;9.344;2023-06-10T08:17:37;23.60;99.90
46364;DHT22;32071;49.036;9.344;2023-06-10T08:20:03;23.60;99.90
46364;DHT22;32071;49.036;9.344;2023-06-10T08:22:29;23.50;99.90
46364;DHT22;32071;49.036;9.344;2023-06-10T08:24:55;23.60;99.90
46364;DHT22;32071;49.036;9.344;2023-06-10T08:27:21;23.70;99.90
46364;DHT22;32071;49.036;9.344;2023-06-10T08:29:47;23.80;99.60
46364;DHT22;32071;49.036;9.344;2023-06-10T08:32:12;24.00;99.50
46364;DHT22;32071;49.036;9.344;2023-06-10T08:34:38;24.10;98.90
46364;DHT22;32071;49.036;9.344;2023-06-10T08:37:04;24.20;98.90
46364;DHT22;32071;49.036;9.344;2023-06-10T08:39:30;24.20;98.70
46364;DHT22;32071;49.036;9.344;2023-06-10T08:44:31;24.40;99.00
46364;DHT22;32071;49.036;9.344;2023-06-10T08:47:14;24.40;98.90
46364;DHT22;32071;49.036;9.344;2023-06-10T08:49:46;24.50;98.70
46364;DHT22;32071;49.036;9.344;2023-06-10T08:52:18;24.60;98.80
46364;DHT22;32071;49.036;9.344;2023-06-10T08:55:06;24.70;99.30
46364;DHT22;32071;49.036;9.344;2023-06-10T08:57:35;24.80;98.60
46364;DHT22;32071;49.036;9.344;2023-06-10T09:00:02;24.90;98.00
46364;DHT22;32071;49.036;9.344;2023-06-10T09:02:28;25.00;98.30
46364;DHT22;32071;49.036;9.344;2023-06-10T09:04:56;25.10;98.30
46364;DHT22;32071;49.036;9.344;2023-06-10T09:07:22;25.10;98.20
46364;DHT22;32071;49.036;9.344;2023-06-10T09:09:49;25.20;96.90
46364;DHT22;32071;49.036;9.344;2023-06-10T09:12:15;25.30;97.60
46364;DHT22;32071;49.036;9.344;2023-06-10T09:14:42;25.20;96.40
46364;DHT22;32071;49.036;9.344;2023-06-10T09:17:07;25.30;96.90
46364;DHT22;32071;49.036;9.344;2023-06-10T09:19:33;25.40;96.40
46364;DHT22;32071;49.036;9.344;2023-06-10T09:22:00;25.40;96.00
46364;DHT22;32071;49.036;9.344;2023-06-10T09:24:25;25.50;97.20
46364;DHT22;32071;49.036;9.344;2023-06-10T09:27:04;25.60;96.60
46364;DHT22;32071;49.036;9.344;2023-06-10T09:29:31;25.80;96.40
46364;DHT22;32071;49.036;9.344;2023-06-10T09:31:57;25.90;96.80
46364;DHT22;32071;49.036;9.344;2023-06-10T09:34:25;26.00;96.70
46364;DHT22;32071;49.036;9.344;2023-06-10T09:36:51;26.00;96.10
46364;DHT22;32071;49.036;9.344;2023-06-10T09:39:18;26.20;96.50
46364;DHT22;32071;49.036;9.344;2023-06-10T09:41:45;26.40;96.20
46364;DHT22;32071;49.036;9.344;2023-06-10T09:44:15;26.40;95.20
46364;DHT22;32071;49.036;9.344;2023-06-10T09:46:42;26.30;95.50
46364;DHT22;32071;49.036;9.344;2023-06-10T09:49:10;26.10;95.10
46364;DHT22;32071;49.036;9.344;2023-06-10T09:51:36;26.30;95.40
46364;DHT22;32071;49.036;9.344;2023-06-10T09:54:04;26.40;94.80
46364;DHT22;32071;49.036;9.344;2023-06-10T09:56:36;26.50;94.20
46364;DHT22;32071;49.036;9.344;2023-06-10T09:59:03;26.80;94.30
46364;DHT22;32071;49.036;9.344;2023-06-10T10:01:31;26.70;93.50
46364;DHT22;32071;49.036;9.344;2023-06-10T10:03:58;26.90;93.50
46364;DHT22;32071;49.036;9.344;2023-06-10T10:06:25;27.10;93.90
46364;DHT22;32071;49.036;9.344;2023-06-10T10:08:51;27.40;93.10
46364;DHT22;32071;49.036;9.344;2023-06-10T10:11:18;27.60;92.80
46364;DHT22;32071;49.036;9.344;2023-06-10T10:13:52;27.60;91.20
46364;DHT22;32071;49.036;9.344;2023-06-10T10:16:20;27.60;91.50
46364;DHT22;32071;49.036;9.344;2023-06-10T10:18:57;27.50;91.30
46364;DHT22;32071;49.036;9.344;2023-06-10T10:21:26;27.50;91.10
46364;DHT22;32071;49.036;9.344;2023-06-10T10:24:16;27.10;90.60
46364;DHT22;32071;49.036;9.344;2023-06-10T10:26:43;26.70;91.10
46364;DHT22;32071;49.036;9.344;2023-06-10T10:29:16;26.30;90.70
46364;DHT22;32071;49.036;9.344;2023-06-10T10:31:46;26.20;91.50
46364;DHT22;32071;49.036;9.344;2023-06-10T10:34:24;26.40;91.70
46364;DHT22;32071;49.036;9.344;2023-06-10T10:36:55;26.90;91.20
46364;DHT22;32071;49.036;9.344;2023-06-10T10:39:21;27.30;91.90
46364;DHT22;32071;49.036;9.344;2023-06-10T10:41:47;27.60;90.20
46364;DHT22;32071;49.036;9.344;2023-06-10T10:44:14;28.00;90.40
46364;DHT22;32071;49.036;9.344;2023-06-10T10:46:44;28.30;90.10
46364;DHT22;32071;49.036;9.344;2023-06-10T10:49:14;28.60;90.10
46364;DHT22;32071;49.036;9.344;2023-06-10T10:51:55;28.80;87.80
46364;DHT22;32071;49.036;9.344;2023-06-10T10:54:31;28.80;85.90
46364;DHT22;32071;49.036;9.344;2023-06-10T10:57:13;28.50;84.80
46364;DHT22;32071;49.036;9.344;2023-06-10T10:59:45;28.30;88.50
46364;DHT22;32071;49.036;9.344;2023-06-10T11:02:18;28.30;87.60
46364;DHT22;32071;49.036;9.344;2023-06-10T11:04:57;28.10;87.80
46364;DHT22;32071;49.036;9.344;2023-06-10T11:07:24;27.60;90.10
46364;DHT22;32071;49.036;9.344;2023-06-10T11:10:01;27.40;88.70
46364;DHT22;32071;49.036;9.344;2023-06-10T11:15:11;27.60;88.10
46364;DHT22;32071;49.036;9.344;2023-06-10T11:17:37;27.60;90.20
46364;DHT22;32071;49.036;9.344;2023-06-10T11:20:03;27.50;88.00
46364;DHT22;32071;49.036;9.344;2023-06-10T11:22:29;27.40;89.50
46364;DHT22;32071;49.036;9.344;2023-06-10T11:24:54;27.40;87.40
46364;DHT22;32071;49.036;9.344;2023-06-10T11:27:23;27.60;87.30
46364;DHT22;32071;49.036;9.344;2023-06-10T11:29:56;27.70;89.30
46364;DHT22;32071;49.036;9.344;2023-06-10T11:32:23;27.60;88.60
46364;DHT22;32071;49.036;9.344;2023-06-10T11:34:52;27.60;85.70
46364;DHT22;32071;49.036;9.344;2023-06-10T11:37:18;27.70;87.10
46364;DHT22;32071;49.036;9.344;2023-06-10T11:39:44;27.90;85.40
46364;DHT22;32071;49.036;9.344;2023-06-10T11:42:10;27.60;84.30
46364;DHT22;32071;49.036;9.344;2023-06-10T11:44:36;27.70;86.70
46364;DHT22;32071;49.036;9.344;2023-06-10T11:47:03;27.60;84.30
46364;DHT22;32071;49.036;9.344;2023-06-10T11:49:29;27.90;86.60
46364;DHT22;32071;49.036;9.344;2023-06-10T11:51:54;28.30;83.60
46364;DHT22;32071;49.036;9.344;2023-06-10T11:54:20;28.60;83.10
46364;DHT22;32071;49.036;9.344;2023-06-10T11:56:47;28.30;81.80
46364;DHT22;32071;49.036;9.344;2023-06-10T11:59:13;28.20;83.80
46364;DHT22;32071;49.036;9.344;2023-06-10T12:01:45;28.20;82.10
46364;DHT22;32071;49.036;9.344;2023-06-10T12:04:13;28.90;81.60
46364;DHT22;32071;49.036;9.344;2023-06-10T12:06:46;29.10;79.70
46364;DHT22;32071;49.036;9.344;2023-06-10T12:09:29;29.60;78.60
46364;DHT22;32071;49.036;9.344;2023-06-10T12:12:00;29.90;79.50
46364;DHT22;32071;49.036;9.344;2023-06-10T12:17:21;29.50;76.00
46364;DHT22;32071;49.036;9.344;2023-06-10T12:19:48;29.80;75.90
46364;DHT22;32071;49.036;9.344;2023-06-10T12:22:14;31.00;75.00
46364;DHT22;32071;49.036;9.344;2023-06-10T12:27:24;32.20;70.50
46364;DHT22;32071;49.036;9.344;2023-06-10T12:29:53;31.70;69.00
46364;DHT22;32071;49.036;9.344;2023-06-10T12:32:19;30.80;70.20
46364;DHT22;32071;49.036;9.344;2023-06-10T12:34:48;30.80;70.30
46364;DHT22;32071;49.036;9.344;2023-06-10T12:37:13;31.20;71.30
46364;DHT22;32071;49.036;9.344;2023-06-10T12:39:40;32.20;71.20
46364;DHT22;32071;49.036;9.344;2023-06-10T12:42:06;33.00;68.60
46364;DHT22;32071;49.036;9.344;2023-06-10T12:44:38;32.90;63.60
46364;DHT22;32071;49.036;9.344;2023-06-10T12:47:09;32.00;68.80
46364;DHT22;32071;49.036;9.344;2023-06-10T12:49:35;32.50;68.40
46364;DHT22;32071;49.036;9.344;2023-06-10T12:52:01;33.00;66.60
46364;DHT22;32071;49.036;9.344;2023-06-10T12:54:27;33.20;63.50
46364;DHT22;32071;49.036;9.344;2023-06-10T12:56:53;33.20;65.00
46364;DHT22;32071;49.036;9.344;2023-06-10T12:59:18;32.70;64.80
46364;DHT22;32071;49.036;9.344;2023-06-10T13:01:49;31.50;66.50
46364;DHT22;32071;49.036;9.344;2023-06-10T13:04:16;30.90;68.10
46364;DHT22;32071;49.036;9.344;2023-06-10T13:06:41;30.10;67.60
46364;DHT22;32071;49.036;9.344;2023-06-10T13:09:07;29.40;70.20
46364;DHT22;32071;49.036;9.344;2023-06-10T13:11:32;30.30;71.40
46364;DHT22;32071;49.036;9.344;2023-06-10T13:13:58;32.00;66.00
46364;DHT22;32071;49.036;9.344;2023-06-10T13:16:24;33.20;61.80
46364;DHT22;32071;49.036;9.344;2023-06-10T13:18:49;34.00;61.50
46364;DHT22;32071;49.036;9.344;2023-06-10T13:21:15;34.70;60.00
46364;DHT22;32071;49.036;9.344;2023-06-10T13:23:40;35.50;58.80
46364;DHT22;32071;49.036;9.344;2023-06-10T13:26:09;36.70;56.40
46364;DHT22;32071;49.036;9.344;2023-06-10T13:28:34;36.90;55.70
46364;DHT22;32071;49.036;9.344;2023-06-10T13:31:00;35.90;55.40
46364;DHT22;32071;49.036;9.344;2023-06-10T13:33:25;35.90;56.50
46364;DHT22;32071;49.036;9.344;2023-06-10T13:35:51;36.10;58.20
46364;DHT22;32071;49.036;9.344;2023-06-10T13:38:16;35.70;56.70
46364;DHT22;32071;49.036;9.344;2023-06-10T13:40:42;36.20;54.90
46364;DHT22;32071;49.036;9.344;2023-06-10T13:43:07;36.50;54.00
46364;DHT22;32071;49.036;9.344;2023-06-10T13:45:35;36.80;54.00
46364;DHT22;32071;49.036;9.344;2023-06-10T13:48:00;36.60;53.60
46364;DHT22;32071;49.036;9.344;2023-06-10T13:50:26;36.50;54.10
46364;DHT22;32071;49.036;9.344;2023-06-10T13:52:52;37.20;54.90
46364;DHT22;32071;49.036;9.344;2023-06-10T13:55:18;37.70;51.40
46364;DHT22;32071;49.036;9.344;2023-06-10T13:57:45;38.00;50.20
46364;DHT22;32071;49.036;9.344;2023-06-10T14:00:11;37.30;50.20
46364;DHT22;32071;49.036;9.344;2023-06-10T14:02:36;36.20;52.90
46364;DHT22;32071;49.036;9.344;2023-06-10T14:05:02;34.40;53.50
46364;DHT22;32071;49.036;9.344;2023-06-10T14:07:28;33.70;56.70
46364;DHT22;32071;49.036;9.344;2023-06-10T14:09:54;34.70;55.00
46364;DHT22;32071;49.036;9.344;2023-06-10T14:12:19;36.30;53.20
46364;DHT22;32071;49.036;9.344;2023-06-10T14:14:45;37.80;52.40
46364;DHT22;32071;49.036;9.344;2023-06-10T14:17:10;39.00;50.30
46364;DHT22;32071;49.036;9.344;2023-06-10T14:19:36;39.70;49.50
46364;DHT22;32071;49.036;9.344;2023-06-10T14:22:02;39.80;48.50
46364;DHT22;32071;49.036;9.344;2023-06-10T14:24:28;39.70;48.40
46364;DHT22;32071;49.036;9.344;2023-06-10T14:26:53;38.80;47.40
46364;DHT22;32071;49.036;9.344;2023-06-10T14:29:19;37.00;49.40
46364;DHT22;32071;49.036;9.344;2023-06-10T14:31:46;36.10;50.90
46364;DHT22;32071;49.036;9.344;2023-06-10T14:34:11;36.40;52.00
46364;DHT22;32071;49.036;9.344;2023-06-10T14:36:38;37.50;50.00
46364;DHT22;32071;49.036;9.344;2023-06-10T14:39:03;38.60;49.90
46364;DHT22;32071;49.036;9.344;2023-06-10T14:41:30;39.40;47.80
46364;DHT22;32071;49.036;9.344;2023-06-10T14:43:55;39.60;47.30
46364;DHT22;32071;49.036;9.344;2023-06-10T14:48:47;41.20;45.50
46364;DHT22;32071;49.036;9.344;2023-06-10T14:51:13;41.70;45.00
46364;DHT22;32071;49.036;9.344;2023-06-10T14:53:39;40.40;44.70
46364;DHT22;32071;49.036;9.344;2023-06-10T14:56:06;40.50;45.80
46364;DHT22;32071;49.036;9.344;2023-06-10T14:58:32;41.10;44.90
46364;DHT22;32071;49.036;9.344;2023-06-10T15:00:57;41.10;45.60
46364;DHT22;32071;49.036;9.344;2023-06-10T15:03:23;40.60;45.20
46364;DHT22;32071;49.036;9.344;2023-06-10T15:05:48;40.40;45.20
46364;DHT22;32071;49.036;9.344;2023-06-10T15:08:14;39.70;45.10
46364;DHT22;32071;49.036;9.344;2023-06-10T15:10:40;39.80;45.00
46364;DHT22;32071;49.036;9.344;2023-06-10T15:13:06;39.10;45.40
46364;DHT22;32071;49.036;9.344;2023-06-10T15:15:31;37.60;46.30
46364;DHT22;32071;49.036;9.344;2023-06-10T15:17:57;37.70;48.70
46364;DHT22;32071;49.036;9.344;2023-06-10T15:20:23;37.80;46.00
46364;DHT22;32071;49.036;9.344;2023-06-10T15:22:48;37.00;48.60
46364;DHT22;32071;49.036;9.344;2023-06-10T15:25:14;38.00;47.90
46364;DHT22;32071;49.036;9.344;2023-06-10T15:27:39;38.60;47.20
46364;DHT22;32071;49.036;9.344;2023-06-10T15:30:05;38.60;45.30
46364;DHT22;32071;49.036;9.344;2023-06-10T15:32:31;39.60;46.50
46364;DHT22;32071;49.036;9.344;2023-06-10T15:34:57;41.00;43.40
46364;DHT22;32071;49.036;9.344;2023-06-10T15:37:22;40.60;45.00
46364;DHT22;32071;49.036;9.344;2023-06-10T15:39:49;40.70;43.90
46364;DHT22;32071;49.036;9.344;2023-06-10T15:42:15;40.30;45.50
46364;DHT22;32071;49.036;9.344;2023-06-10T15:44:41;40.30;44.30
46364;DHT22;32071;49.036;9.344;2023-06-10T15:47:06;40.70;44.50
46364;DHT22;32071;49.036;9.344;2023-06-10T15:49:32;40.50;44.00